sim
Sign-in with your pilot id or email,
or register
Callsign
Passwort

Schedule Details

Flight Number: DLH2717 (2)
Departure: Dusseldorf International Airport (EDDL) at 08:10
Arrival: Munich Airport (EDDM) at 09:25
Route: Lufthansa Passenger Schedule. Enter filed route here before submitting Pirep.

Weather Information
Getting current METAR information for EDDL 221750Z 31001KT CAVOK 19/09 Q1007 NOSIG
Getting current METAR information for EDDM 221750Z VRB01KT 9999 FEW050TCU 18/15 Q1010 NOSIG

Schedule Frequency

Route Map